createdAt,value
2023-01-28T00:55:24.374Z,13.00
2023-01-28T01:06:14.904Z,10.90
2023-01-28T04:28:01.884Z,7.13
2023-01-28T04:30:31.617Z,7.55
2023-01-28T04:43:58.480Z,8.00
2023-01-28T04:47:07.117Z,7.70
2023-01-28T04:50:07.657Z,6.93
2023-01-28T04:52:53.645Z,7.13
2023-01-28T04:55:47.043Z,7.40
2023-01-28T04:58:26.163Z,9.30
2023-01-28T05:01:11.227Z,7.65
2023-01-28T05:03:42.007Z,7.10
2023-01-28T05:06:20.100Z,7.43
2023-01-28T05:08:50.446Z,7.13
2023-01-28T05:11:20.707Z,7.05
2023-01-28T05:13:51.500Z,6.38
2023-01-28T05:16:24.545Z,6.45
2023-01-28T05:21:29.271Z,6.75
2023-01-28T05:24:09.086Z,6.50
2023-01-28T05:26:50.021Z,6.85
2023-01-28T05:29:19.287Z,7.72
2023-01-28T05:31:48.039Z,6.25
2023-01-28T05:34:15.740Z,6.97
2023-01-28T05:36:51.480Z,8.50
2023-01-28T05:39:51.397Z,5.68
2023-01-28T05:42:21.123Z,6.32
2023-01-28T05:44:57.238Z,6.20
2023-01-28T05:47:39.363Z,5.75
2023-01-28T05:50:38.265Z,6.05
2023-01-28T05:53:11.269Z,6.75
2023-01-28T05:55:44.139Z,6.53
2023-01-28T05:58:14.334Z,9.10
2023-01-28T06:00:44.523Z,5.88
2023-01-28T06:03:20.988Z,8.10
2023-01-28T06:05:49.031Z,6.25
2023-01-28T06:08:16.625Z,6.18
2023-01-28T06:10:43.699Z,6.28
2023-01-28T06:13:11.331Z,6.55
2023-01-28T06:16:00.361Z,5.95
2023-01-28T06:21:20.164Z,6.20
2023-01-28T06:23:47.229Z,6.20
2023-01-28T06:26:14.463Z,6.10
2023-01-28T06:28:44.350Z,5.22
2023-01-28T06:31:13.897Z,6.35
2023-01-28T06:33:40.987Z,5.57
2023-01-28T06:56:32.170Z,6.28
2023-01-28T06:59:33.508Z,6.20
2023-01-28T07:02:00.578Z,6.70
2023-01-28T10:35:21.741Z,6.82
2023-01-28T10:42:18.189Z,7.20
2023-01-28T10:46:23.603Z,6.63
2023-01-28T11:50:11.723Z,3.83
2023-01-28T11:53:17.172Z,5.10
2023-01-28T11:56:13.860Z,5.82
2023-01-28T11:59:05.993Z,4.97
2023-01-28T12:07:19.009Z,5.25
2023-01-28T13:08:35.268Z,3.97
2023-01-28T14:25:00.331Z,3.30
2023-01-28T14:27:44.561Z,3.20
2023-01-28T14:33:14.834Z,3.95
2023-01-28T14:36:10.058Z,4.18
2023-01-28T14:39:20.793Z,3.50
2023-01-28T14:44:40.880Z,4.10
2023-01-28T14:47:51.466Z,4.43
2023-01-28T14:53:26.652Z,4.03
2023-01-28T15:02:20.197Z,3.70
2023-01-28T15:04:50.630Z,4.00
2023-01-28T15:07:23.486Z,2.85
2023-01-28T15:10:05.700Z,2.70
2023-01-28T15:12:52.795Z,3.10
2023-01-28T20:21:43.861Z,7.05
2023-01-28T20:24:16.517Z,9.88
2023-01-28T20:26:47.077Z,6.43
2023-01-28T20:29:18.152Z,6.20
2023-01-28T20:31:52.024Z,8.30
2023-01-28T20:34:29.037Z,9.13
